Time;durP1;ratioP1;P1;durP2;ratioP2;P2;SDS_P1;SDS_P2;PMS_P1;PMS_P2;Temp;Humidity;BMP_temperature;BMP_pressure;BME280_temperature;BME280_humidity;BME280_pressure;Samples;Min_cycle;Max_cycle;Signal;HPM_P1;HPM_P2
2022/04/17 00:00:06;;;;;;;;;33.50;29.00;;;;;14.85;65.99;100465.09;146611;645;46008;-76
2022/04/17 00:03:02;;;;;;;;;27.00;22.75;;;;;14.87;66.48;100475.59;146612;715;46010;-71
2022/04/17 00:05:59;;;;;;;;;19.00;19.00;;;;;14.77;65.91;100456.16;146615;572;46008;-70
2022/04/17 00:08:51;;;;;;;;;13.25;12.00;;;;;14.69;63.20;100457.66;146610;589;45016;-70
2022/04/17 00:12:08;;;;;;;;;10.00;8.00;;;;;13.74;60.85;100316.47;146613;599;46008;-69
2022/04/17 00:19:00;;;;;;;;;11.25;9.00;;;;;14.81;63.96;100506.75;146616;591;46008;-71
2022/04/17 00:21:52;;;;;;;;;11.25;10.00;;;;;14.81;64.39;100507.63;146591;583;47010;-70
2022/04/17 00:24:44;;;;;;;;;12.25;11.00;;;;;14.82;65.04;100498.06;146586;674;47008;-70
2022/04/17 00:27:55;;;;;;;;;14.25;11.25;;;;;14.84;64.25;100501.63;146589;649;47010;-71
2022/04/17 00:30:49;;;;;;;;;13.25;11.00;;;;;14.85;65.00;100490.31;146590;588;47008;-73
2022/04/17 00:33:41;;;;;;;;;37.75;32.25;;;;;14.86;65.34;100503.44;146588;600;47013;-72
2022/04/17 00:36:33;;;;;;;;;42.00;32.50;;;;;14.88;65.31;100490.41;146584;654;47008;-73
2022/04/17 00:39:25;;;;;;;;;18.50;14.50;;;;;14.02;66.27;100349.50;146586;724;46016;-73
2022/04/17 00:42:20;;;;;;;;;19.25;18.25;;;;;14.84;67.12;100499.88;146592;583;46008;-77
2022/04/17 00:45:14;;;;;;;;;16.75;15.00;;;;;14.83;67.39;100508.56;146584;586;47010;-78
2022/04/17 00:48:05;;;;;;;;;14.00;12.00;;;;;14.78;69.32;100507.53;146587;581;46021;-77
2022/04/17 00:51:00;;;;;;;;;15.50;12.50;;;;;14.69;71.23;100515.94;146583;663;47010;-77
2022/04/17 00:53:53;;;;;;;;;12.00;12.00;;;;;14.54;71.98;100518.94;146592;565;47008;-78
2022/04/17 00:56:46;;;;;;;;;12.00;9.50;;;;;14.42;69.90;100509.81;146588;680;46010;-78
2022/04/17 00:59:39;;;;;;;;;14.50;11.50;;;;;14.33;69.95;100508.69;146593;565;46020;-86
2022/04/17 01:02:32;;;;;;;;;13.50;11.50;;;;;14.28;69.96;100525.03;146589;626;46016;-87
2022/04/17 01:05:24;;;;;;;;;17.50;14.75;;;;;12.95;69.66;100306.00;146592;590;46008;-91
2022/04/17 01:08:17;;;;;;;;;14.75;13.25;;;;;13.95;69.04;100475.25;146590;609;46016;-88
2022/04/17 01:11:09;;;;;;;;;16.00;12.00;;;;;14.31;68.87;100541.66;146591;595;46020;-86
2022/04/17 01:14:02;;;;;;;;;20.25;18.00;;;;;14.36;69.08;100560.09;146583;586;47010;-81
2022/04/17 01:16:55;;;;;;;;;17.00;14.25;;;;;14.42;68.63;100557.66;146589;609;46020;-85
2022/04/17 01:19:48;;;;;;;;;20.00;16.75;;;;;14.48;69.04;100549.16;146586;634;47010;-78
2022/04/17 01:22:40;;;;;;;;;12.75;12.00;;;;;14.48;69.08;100528.28;146588;637;46020;-78
2022/04/17 01:28:43;;;;;;;;;11.50;10.00;;;;;14.43;69.67;100528.16;146592;633;46020;-73
2022/04/17 01:31:35;;;;;;;;;13.75;11.75;;;;;14.40;69.10;100514.13;146590;610;46031;-73
2022/04/17 01:34:28;;;;;;;;;13.25;9.75;;;;;14.38;68.92;100521.87;146593;588;46021;-73
2022/04/17 01:37:22;;;;;;;;;14.50;10.75;;;;;14.37;68.89;100500.97;146589;619;46016;-72
2022/04/17 01:40:14;;;;;;;;;20.25;17.50;;;;;14.41;70.07;100490.69;146587;574;47008;-73
2022/04/17 01:43:11;;;;;;;;;17.50;13.50;;;;;14.42;69.59;100481.13;146585;594;47010;-73
2022/04/17 01:46:03;;;;;;;;;31.25;28.50;;;;;14.41;69.91;100450.66;146587;615;46020;-72
2022/04/17 01:48:55;;;;;;;;;20.00;17.75;;;;;14.41;69.58;100482.84;146585;580;47010;-72
2022/04/17 01:51:54;;;;;;;;;18.75;16.00;;;;;14.39;69.30;100481.03;146588;598;46020;-74
2022/04/17 01:54:46;;;;;;;;;18.50;15.00;;;;;14.36;71.50;100465.28;146587;595;46010;-76
2022/04/17 01:57:38;;;;;;;;;14.50;12.50;;;;;14.33;70.01;100453.94;146594;592;46008;-75
2022/04/17 02:00:30;;;;;;;;;15.00;10.50;;;;;14.31;69.99;100446.87;146584;566;47010;-74
2022/04/17 02:03:23;;;;;;;;;28.00;23.50;;;;;14.28;69.10;100424.19;146589;618;47008;-74
2022/04/17 02:06:15;;;;;;;;;18.50;12.00;;;;;14.28;69.21;100429.41;146585;618;46010;-74
2022/04/17 02:09:08;;;;;;;;;13.00;10.00;;;;;14.30;69.09;100422.53;146590;563;46020;-76
2022/04/17 02:12:00;;;;;;;;;12.50;8.50;;;;;14.29;69.04;100406.81;146587;617;46019;-71
2022/04/17 02:14:53;;;;;;;;;7.75;6.25;;;;;14.27;69.13;100387.66;146588;575;46020;-73
2022/04/17 02:17:45;;;;;;;;;15.00;13.50;;;;;14.28;69.07;100379.87;146593;622;46016;-77
2022/04/17 02:20:37;;;;;;;;;11.75;9.50;;;;;14.29;69.30;100383.34;146591;607;46008;-76
2022/04/17 02:23:29;;;;;;;;;9.50;9.00;;;;;14.30;69.26;100372.09;146590;694;47010;-77
2022/04/17 02:26:21;;;;;;;;;10.00;9.75;;;;;14.29;68.99;100357.28;146592;626;46021;-74
2022/04/17 02:29:14;;;;;;;;;11.25;8.25;;;;;14.28;72.49;100363.34;146592;603;46010;-74
2022/04/17 02:32:07;;;;;;;;;11.50;10.00;;;;;14.20;69.20;100342.22;146593;564;46020;-74
2022/04/17 02:34:59;;;;;;;;;11.75;11.00;;;;;14.19;69.68;100343.06;146591;659;47010;-73
2022/04/17 02:37:55;;;;;;;;;11.00;7.75;;;;;14.14;70.48;100323.78;146593;584;46008;-72
2022/04/17 02:40:50;;;;;;;;;12.50;10.00;;;;;14.11;68.87;100300.22;146589;589;46017;-72
2022/04/17 02:43:43;;;;;;;;;10.25;9.00;;;;;14.09;69.34;100289.75;146587;564;46919;-74
2022/04/17 02:49:45;;;;;;;;;10.25;8.00;;;;;13.92;71.96;100331.78;146596;573;46012;-74
2022/04/17 02:52:41;;;;;;;;;8.50;8.50;;;;;13.83;70.12;100322.88;146592;591;46010;-72
2022/04/17 02:55:34;;;;;;;;;15.25;13.50;;;;;13.84;70.07;100311.59;146594;576;46008;-73
2022/04/17 02:58:27;;;;;;;;;14.50;10.50;;;;;13.86;69.74;100315.13;146584;618;47010;-72
2022/04/17 03:07:41;;;;;;;;;13.00;10.50;;;;;13.86;73.87;100301.19;146590;572;46020;-76
2022/04/17 03:10:34;;;;;;;;;11.50;10.00;;;;;13.76;71.49;100305.25;146584;580;47010;-78
2022/04/17 03:13:27;;;;;;;;;14.00;13.00;;;;;13.68;73.80;100311.94;146587;605;46008;-72
2022/04/17 03:16:19;;;;;;;;;11.75;11.00;;;;;13.61;73.64;100333.41;146586;566;46017;-71
2022/04/17 03:19:15;;;;;;;;;11.50;11.00;;;;;13.55;74.64;100338.41;146592;606;46008;-72
2022/04/17 03:22:07;;;;;;;;;16.50;11.50;;;;;13.50;75.78;100351.31;146590;593;46016;-72
2022/04/17 03:25:00;;;;;;;;;12.50;10.00;;;;;13.42;76.54;100349.28;146591;581;47012;-71
2022/04/17 03:27:53;;;;;;;;;11.25;11.25;;;;;13.35;75.01;100340.38;146586;620;46016;-72
2022/04/17 03:30:45;;;;;;;;;8.75;8.00;;;;;13.31;75.62;100331.56;146584;587;47917;-72
2022/04/17 03:33:40;;;;;;;;;10.00;9.75;;;;;13.29;75.41;100330.62;146593;564;46016;-71
2022/04/17 03:36:42;;;;;;;;;11.50;8.50;;;;;13.25;76.02;100328.75;146591;613;47012;-72
2022/04/17 03:39:35;;;;;;;;;6.50;6.50;;;;;13.22;75.82;100332.94;146591;579;46919;-72
2022/04/17 03:42:35;;;;;;;;;8.00;7.50;;;;;13.20;76.90;100337.22;146586;581;46020;-71
2022/04/17 03:45:28;;;;;;;;;12.75;9.50;;;;;13.20;77.50;100347.62;146592;598;46017;-71
2022/04/17 03:48:20;;;;;;;;;9.50;7.00;;;;;13.21;75.59;100338.97;146594;570;45021;-71
2022/04/17 03:51:12;;;;;;;;;10.00;8.50;;;;;13.20;74.71;100342.41;146590;624;47012;-72
2022/04/17 03:54:05;;;;;;;;;8.00;6.50;;;;;13.20;72.10;100348.50;146592;564;46021;-71
2022/04/17 03:56:59;;;;;;;;;10.75;7.50;;;;;13.21;74.66;100362.41;146592;667;46919;-71
2022/04/17 03:59:52;;;;;;;;;7.25;7.25;;;;;13.22;73.20;100367.66;146591;574;47012;-73
2022/04/17 04:02:46;;;;;;;;;8.50;6.25;;;;;13.22;72.75;100372.00;146591;590;46012;-71
2022/04/17 04:05:38;;;;;;;;;8.50;6.50;;;;;13.25;72.09;100365.22;146595;574;47008;-72
2022/04/17 04:08:30;;;;;;;;;10.50;9.25;;;;;13.27;72.35;100365.25;146588;594;46016;-72
2022/04/17 04:11:22;;;;;;;;;10.50;8.25;;;;;13.29;71.41;100364.47;146585;605;47008;-72
2022/04/17 04:14:14;;;;;;;;;8.00;6.00;;;;;13.32;72.16;100364.59;146586;569;47012;-72
2022/04/17 04:17:10;;;;;;;;;9.00;5.00;;;;;13.34;70.58;100364.66;146594;603;46008;-72
2022/04/17 04:20:02;;;;;;;;;8.75;6.00;;;;;13.37;71.62;100352.63;146590;565;47010;-73
2022/04/17 04:22:57;;;;;;;;;8.50;6.75;;;;;13.42;73.45;100344.06;146595;582;45917;-75
2022/04/17 04:25:49;;;;;;;;;8.75;6.00;;;;;13.39;72.68;100337.94;146592;571;46016;-73
2022/04/17 04:28:44;;;;;;;;;8.00;7.25;;;;;13.32;74.92;100333.34;146595;564;45917;-72
2022/04/17 04:31:36;;;;;;;;;11.00;6.00;;;;;13.29;72.23;100337.56;146593;606;46017;-73
2022/04/17 04:34:29;;;;;;;;;8.75;8.75;;;;;13.24;72.12;100341.66;146594;602;46008;-73
2022/04/17 04:37:21;;;;;;;;;11.25;9.25;;;;;13.27;71.87;100347.94;146592;651;46016;-74
2022/04/17 04:40:15;;;;;;;;;11.50;9.00;;;;;13.35;72.14;100358.59;146589;590;46020;-73
2022/04/17 04:43:08;;;;;;;;;9.50;7.00;;;;;13.43;71.79;100364.97;146591;676;46010;-73
2022/04/17 04:46:07;;;;;;;;;12.50;8.25;;;;;13.50;71.50;100366.06;146596;615;46012;-72
2022/04/17 04:52:12;;;;;;;;;9.25;8.00;;;;;13.54;71.21;100349.69;146596;564;46008;-74
2022/04/17 04:55:08;;;;;;;;;10.75;8.75;;;;;13.63;70.59;100365.63;146595;626;45920;-75
2022/04/17 04:58:01;;;;;;;;;10.25;8.25;;;;;13.69;71.20;100365.81;146593;689;46020;-78
2022/04/17 05:00:53;;;;;;;;;8.50;8.00;;;;;13.77;70.50;100372.19;146592;580;46017;-78
2022/04/17 05:03:46;;;;;;;;;15.75;13.25;;;;;13.83;70.59;100380.19;146595;735;46012;-75
2022/04/17 05:06:41;;;;;;;;;11.00;9.25;;;;;13.95;69.94;100365.78;146587;589;46919;-73
2022/04/17 05:09:40;;;;;;;;;12.75;10.75;;;;;14.08;70.46;100360.09;146589;610;45021;-75
2022/04/17 05:12:33;;;;;;;;;12.75;9.25;;;;;14.19;70.18;100357.84;146587;653;46010;-75
2022/04/17 05:15:26;;;;;;;;;11.00;9.75;;;;;14.32;70.14;100350.41;146596;615;45021;-75
2022/04/17 05:18:19;;;;;;;;;13.25;12.50;;;;;14.41;69.82;100344.59;146592;610;46010;-76
2022/04/17 05:21:11;;;;;;;;;14.25;12.25;;;;;14.48;69.27;100343.06;146590;589;46020;-75
2022/04/17 05:24:04;;;;;;;;;11.75;9.75;;;;;14.54;69.43;100357.19;146586;635;47010;-74
2022/04/17 05:26:56;;;;;;;;;13.75;11.00;;;;;14.57;70.81;100363.34;146594;613;46008;-74
2022/04/17 05:29:48;;;;;;;;;10.50;8.00;;;;;14.45;71.99;100361.22;146589;709;47010;-73
2022/04/17 05:32:41;;;;;;;;;10.25;10.25;;;;;14.36;69.62;100354.03;146590;601;46918;-73
2022/04/17 05:35:35;;;;;;;;;11.00;10.75;;;;;14.35;71.84;100357.47;146586;649;46010;-73
2022/04/17 05:38:27;;;;;;;;;12.75;11.75;;;;;14.29;72.94;100365.09;146587;587;46021;-78
2022/04/17 05:41:20;;;;;;;;;12.25;11.00;;;;;14.15;71.71;100361.19;146591;564;46016;-80
2022/04/17 05:44:14;;;;;;;;;13.00;11.75;;;;;14.10;69.74;100354.09;146591;579;46020;-76
2022/04/17 05:47:06;;;;;;;;;7.50;7.50;;;;;14.13;70.18;100337.66;146591;573;46919;-76
2022/04/17 05:50:01;;;;;;;;;10.25;9.50;;;;;14.22;70.17;100344.91;146594;627;46008;-72
2022/04/17 05:52:54;;;;;;;;;10.25;8.25;;;;;14.30;70.89;100349.50;146590;727;47011;-73
2022/04/17 05:55:47;;;;;;;;;14.75;13.75;;;;;14.39;69.49;100356.72;146594;612;46020;-73
2022/04/17 05:58:39;;;;;;;;;15.75;13.50;;;;;14.45;69.30;100351.66;146585;566;47011;-75
2022/04/17 06:01:31;;;;;;;;;14.00;12.75;;;;;14.54;68.62;100361.53;146592;647;46021;-70
2022/04/17 06:04:25;;;;;;;;;12.75;10.25;;;;;14.62;68.24;100374.81;146587;597;46010;-77
2022/04/17 06:07:29;;;;;;;;;13.75;12.25;;;;;14.72;67.88;100382.06;146587;616;46919;-78
2022/04/17 06:10:21;;;;;;;;;14.75;12.75;;;;;14.81;68.02;100384.06;146584;578;46016;-79
2022/04/17 06:13:18;;;;;;;;;14.25;13.75;;;;;14.86;68.81;100385.97;146594;599;46012;-77
2022/04/17 06:16:12;;;;;;;;;11.75;11.50;;;;;14.90;69.33;100395.66;146587;601;46017;-80
2022/04/17 06:19:09;;;;;;;;;16.25;13.75;;;;;14.87;70.23;100381.62;146592;619;46020;-73
2022/04/17 06:25:31;;;;;;;;;22.25;16.25;;;;;14.87;71.06;100381.62;146588;566;47012;-71
2022/04/17 06:28:23;;;;;;;;;22.25;17.00;;;;;14.82;69.67;100373.66;146584;593;46016;-77
2022/04/17 06:31:16;;;;;;;;;15.75;13.50;;;;;14.77;72.17;100370.03;146585;669;46021;-81
2022/04/17 06:34:08;;;;;;;;;20.50;16.75;;;;;14.74;69.10;100368.22;146584;678;46016;-81
2022/04/17 06:36:59;;;;;;;;;21.50;16.75;;;;;14.78;68.86;100379.63;146588;570;46008;-80
2022/04/17 06:39:52;;;;;;;;;16.75;16.50;;;;;14.85;68.61;100383.28;146581;608;47010;-79
2022/04/17 06:42:44;;;;;;;;;20.25;16.75;;;;;14.93;68.52;100385.28;146585;571;46020;-81
2022/04/17 06:45:38;;;;;;;;;19.50;16.00;;;;;14.64;68.25;100318.31;146583;729;47012;-80
2022/04/17 06:48:30;;;;;;;;;20.75;16.25;;;;;15.15;68.17;100394.59;146588;556;46008;-81
2022/04/17 06:51:25;;;;;;;;;15.25;15.25;;;;;15.24;68.43;100400.06;146585;582;46010;-80
2022/04/17 06:54:17;;;;;;;;;22.00;19.50;;;;;15.32;69.21;100417.66;146586;603;46008;-85
2022/04/17 06:57:09;;;;;;;;;26.25;22.75;;;;;15.29;69.33;100428.03;146585;600;46016;-89
2022/04/17 07:00:02;;;;;;;;;23.00;18.00;;;;;15.13;72.31;100432.84;146588;586;45028;-85
2022/04/17 07:02:55;;;;;;;;;22.75;18.25;;;;;14.84;72.95;100423.31;146585;667;46029;-92
2022/04/17 07:05:48;;;;;;;;;20.00;19.00;;;;;14.64;73.87;100426.22;146586;574;46021;-89
2022/04/17 07:08:41;;;;;;;;;18.00;16.00;;;;;14.46;73.29;100418.69;146584;602;46010;-85
2022/04/17 07:11:33;;;;;;;;;20.50;17.00;;;;;14.23;76.01;100424.88;146589;637;46020;-86
2022/04/17 07:14:25;;;;;;;;;25.25;24.75;;;;;14.05;76.97;100422.59;146586;578;46017;-84
2022/04/17 07:17:17;;;;;;;;;37.25;29.25;;;;;13.94;77.37;100427.44;146585;588;46020;-78
2022/04/17 07:20:11;;;;;;;;;35.00;31.75;;;;;13.91;77.04;100434.28;146584;563;46030;-79
2022/04/17 07:23:03;;;;;;;;;35.00;29.00;;;;;13.43;77.08;100356.22;146585;580;46021;-79
2022/04/17 07:25:57;;;;;;;;;24.00;20.50;;;;;13.80;76.32;100428.69;146582;600;47010;-78
2022/04/17 07:28:49;;;;;;;;;17.50;16.25;;;;;13.80;74.34;100420.88;146586;587;46036;-77
2022/04/17 07:31:41;;;;;;;;;27.25;22.75;;;;;13.84;73.49;100423.66;146582;597;46016;-77
2022/04/17 07:34:33;;;;;;;;;22.25;18.75;;;;;13.87;75.45;100422.88;146584;598;47008;-76
2022/04/17 07:37:34;;;;;;;;;18.00;17.50;;;;;13.87;74.74;100428.09;146580;589;47010;-77
2022/04/17 07:40:28;;;;;;;;;18.00;14.00;;;;;13.85;75.97;100424.53;146589;563;46020;-78
2022/04/17 07:43:20;;;;;;;;;18.25;15.00;;;;;13.88;73.31;100419.44;146584;592;46017;-77
2022/04/17 07:46:12;;;;;;;;;16.25;14.00;;;;;13.92;74.63;100425.62;146587;675;46008;-77
2022/04/17 07:49:05;;;;;;;;;19.25;14.75;;;;;13.98;73.50;100426.69;146582;583;47010;-79
2022/04/17 07:51:57;;;;;;;;;17.25;15.00;;;;;14.01;74.76;100434.63;146584;601;47008;-77
2022/04/17 07:54:50;;;;;;;;;12.00;11.25;;;;;14.03;75.16;100432.09;146582;597;47010;-76
2022/04/17 08:00:59;;;;;;;;;14.00;12.25;;;;;13.98;76.05;100421.50;146584;673;46016;-77
2022/04/17 08:03:51;;;;;;;;;18.00;16.00;;;;;13.95;77.45;100415.28;146588;653;45027;-79
2022/04/17 08:06:43;;;;;;;;;17.25;15.00;;;;;13.93;77.94;100406.56;146584;580;46011;-77
2022/04/17 08:09:36;;;;;;;;;19.00;15.25;;;;;13.92;77.40;100399.56;146591;572;46020;-77
2022/04/17 08:12:28;;;;;;;;;17.75;13.25;;;;;13.90;77.46;100404.72;146583;597;46016;-77
2022/04/17 08:15:20;;;;;;;;;20.50;17.50;;;;;13.89;74.79;100402.06;146590;665;46021;-78
2022/04/17 08:18:13;;;;;;;;;20.00;17.25;;;;;13.93;76.09;100401.34;146582;621;47010;-79
2022/04/17 08:21:06;;;;;;;;;24.25;21.25;;;;;13.93;76.65;100391.81;146585;618;46021;-78
2022/04/17 08:24:00;;;;;;;;;24.25;19.00;;;;;13.71;74.03;100345.91;146584;599;46016;-77
2022/04/17 08:26:52;;;;;;;;;23.75;20.75;;;;;13.97;73.49;100370.19;146586;582;46020;-78
2022/04/17 08:29:44;;;;;;;;;24.25;20.25;;;;;14.04;73.48;100364.34;146583;564;47012;-78
2022/04/17 08:32:36;;;;;;;;;24.25;21.25;;;;;14.08;73.38;100353.19;146585;565;46020;-69
2022/04/17 08:35:29;;;;;;;;;21.75;20.50;;;;;14.16;73.13;100350.81;146583;673;47010;-76
2022/04/17 08:38:22;;;;;;;;;25.00;22.25;;;;;14.21;73.42;100341.41;146588;668;46008;-77
2022/04/17 08:41:15;;;;;;;;;18.75;18.75;;;;;14.27;73.38;100325.94;146583;647;47010;-76
2022/04/17 08:44:08;;;;;;;;;43.25;35.00;;;;;14.32;73.20;100318.25;146587;585;46021;-76
2022/04/17 08:47:00;;;;;;;;;43.00;34.50;;;;;14.35;73.04;100307.03;146585;574;46918;-76
2022/04/17 08:49:53;;;;;;;;;36.25;30.75;;;;;14.43;73.07;100316.84;146584;628;47008;-75
2022/04/17 08:52:49;;;;;;;;;45.75;36.75;;;;;14.49;72.73;100326.59;146584;602;47012;-75
2022/04/17 08:55:42;;;;;;;;;33.50;28.50;;;;;14.53;72.89;100318.03;146586;605;46020;-76
2022/04/17 08:58:34;;;;;;;;;37.50;31.50;;;;;14.56;72.95;100328.56;146584;630;46017;-75
2022/04/17 09:01:26;;;;;;;;;35.25;30.25;;;;;14.57;72.64;100329.44;146583;571;46020;-75
2022/04/17 09:04:19;;;;;;;;;38.25;31.50;;;;;14.60;72.84;100335.63;146584;569;46016;-75
2022/04/17 09:07:13;;;;;;;;;45.25;36.50;;;;;14.62;72.96;100330.47;146585;564;46021;-75
2022/04/17 09:10:05;;;;;;;;;53.75;42.25;;;;;14.62;72.45;100323.50;146581;587;47008;-75
2022/04/17 09:13:02;;;;;;;;;55.75;44.00;;;;;14.62;72.53;100313.06;146586;633;46008;-73
2022/04/17 09:15:55;;;;;;;;;55.75;45.00;;;;;14.64;72.39;100307.87;146587;565;46010;-76
2022/04/17 09:18:46;;;;;;;;;55.00;43.75;;;;;14.64;72.26;100293.12;146586;594;46026;-76
2022/04/17 09:21:39;;;;;;;;;48.50;40.75;;;;;14.66;73.30;100282.72;146609;636;46008;-74
2022/04/17 09:24:31;;;;;;;;;52.00;41.50;;;;;13.00;73.20;100003.41;146615;626;45008;-75
2022/04/17 09:27:30;;;;;;;;;43.50;35.00;;;;;14.51;74.28;100260.56;146611;626;45016;-76
2022/04/17 09:30:38;;;;;;;;;36.00;31.00;;;;;14.43;74.92;100266.41;146609;622;45020;-76
2022/04/17 09:33:39;;;;;;;;;38.50;31.25;;;;;14.37;74.49;100268.84;146609;585;46008;-76
2022/04/17 09:36:37;;;;;;;;;37.25;31.00;;;;;14.31;73.52;100270.41;146610;600;46918;-77
2022/04/17 09:39:35;;;;;;;;;39.00;33.25;;;;;14.29;75.02;100268.59;146608;652;45016;-76
2022/04/17 09:42:29;;;;;;;;;44.00;35.50;;;;;14.25;74.79;100272.84;146608;582;46012;-76
2022/04/17 09:45:21;;;;;;;;;35.00;31.25;;;;;14.24;73.92;100275.44;146605;571;46010;-74
2022/04/17 09:48:21;;;;;;;;;44.00;36.75;;;;;14.22;76.87;100283.19;146611;585;46008;-75
2022/04/17 09:51:28;;;;;;;;;49.00;39.50;;;;;14.20;74.43;100294.41;146598;600;46916;-74
2022/04/17 09:54:20;;;;;;;;;35.00;31.00;;;;;14.14;77.09;100289.88;146613;661;45918;-75
2022/04/17 09:57:13;;;;;;;;;36.75;31.75;;;;;14.04;79.47;100312.19;146612;624;46008;-74
2022/04/17 10:00:23;;;;;;;;;18.50;18.00;;;;;13.78;74.54;100323.53;146611;563;45020;-74
2022/04/17 10:03:15;;;;;;;;;15.00;14.25;;;;;13.55;74.53;100315.88;146612;610;46008;-74
2022/04/17 10:06:08;;;;;;;;;16.75;14.25;;;;;13.36;75.21;100295.25;146612;593;46008;-74
2022/04/17 10:09:01;;;;;;;;;19.50;18.00;;;;;13.34;74.35;100291.75;146609;574;45016;-74
2022/04/17 10:11:59;;;;;;;;;18.25;16.00;;;;;13.32;74.28;100268.22;146611;670;45918;-73
2022/04/17 10:14:55;;;;;;;;;16.25;15.00;;;;;13.37;73.14;100257.97;146612;633;46008;-73
2022/04/17 10:17:50;;;;;;;;;18.00;15.00;;;;;13.46;72.52;100254.75;146613;620;45021;-73
2022/04/17 10:20:42;;;;;;;;;17.75;17.00;;;;;13.55;72.60;100255.97;146591;570;46016;-74
2022/04/17 10:23:36;;;;;;;;;22.50;20.25;;;;;13.64;72.74;100239.72;146589;563;46020;-74
2022/04/17 10:26:30;;;;;;;;;52.00;42.75;;;;;13.75;72.80;100233.13;146585;606;46011;-73
2022/04/17 10:29:48;;;;;;;;;54.50;43.75;;;;;13.83;72.47;100235.94;146585;563;46020;-74
2022/04/17 10:33:26;;;;;;;;;30.75;28.50;;;;;13.91;72.18;100233.59;146584;613;46010;-74
2022/04/17 10:37:14;;;;;;;;;46.75;39.50;;;;;13.91;72.17;100220.56;146585;563;46020;-74
2022/04/17 10:40:06;;;;;;;;;103.50;91.75;;;;;13.96;72.80;100216.37;146591;581;46010;-73
2022/04/17 10:43:04;;;;;;;;;48.00;38.75;;;;;14.00;73.09;100213.00;146591;649;46023;-74
2022/04/17 10:46:14;;;;;;;;;29.50;26.75;;;;;14.01;72.02;100207.81;146584;595;46016;-74
2022/04/17 10:49:06;;;;;;;;;54.00;42.25;;;;;14.03;72.56;100198.34;146585;578;46021;-73
2022/04/17 10:52:02;;;;;;;;;64.50;51.00;;;;;14.09;73.17;100202.84;146583;576;47012;-74
2022/04/17 10:54:55;;;;;;;;;62.25;50.00;;;;;14.13;72.88;100206.44;146584;634;47008;-74
2022/04/17 10:57:52;;;;;;;;;53.50;43.00;;;;;14.15;72.30;100199.53;146585;575;46012;-74
2022/04/17 11:00:44;;;;;;;;;45.00;36.50;;;;;14.17;71.88;100205.66;146584;654;46020;-74
2022/04/17 11:03:40;;;;;;;;;20.75;18.00;;;;;14.17;70.97;100188.28;146582;576;46021;-74
2022/04/17 11:06:33;;;;;;;;;24.50;20.75;;;;;14.15;70.22;100189.13;146585;563;46020;-74
2022/04/17 11:09:29;;;;;;;;;31.00;29.00;;;;;13.18;70.04;100016.97;146584;597;46918;-73
2022/04/17 11:12:28;;;;;;;;;31.75;29.25;;;;;13.20;70.29;100012.66;146588;564;45021;-73
2022/04/17 11:15:28;;;;;;;;;34.00;31.75;;;;;14.18;70.22;100181.38;146583;636;46016;-73
2022/04/17 11:18:23;;;;;;;;;43.25;34.50;;;;;14.17;72.02;100185.69;146586;659;46021;-74
2022/04/17 11:21:15;;;;;;;;;39.75;32.50;;;;;14.14;71.35;100187.31;146583;563;46016;-74
2022/04/17 11:24:08;;;;;;;;;31.25;29.00;;;;;14.11;71.46;100188.12;146584;599;47008;-74
2022/04/17 11:27:19;;;;;;;;;40.25;33.50;;;;;12.15;70.41;99841.31;146584;574;46017;-74
2022/04/17 11:30:33;;;;;;;;;47.00;38.00;;;;;14.14;71.94;100176.91;146587;585;46008;-74
2022/04/17 11:33:25;;;;;;;;;38.50;32.00;;;;;14.14;72.79;100164.75;146582;676;47012;-74
2022/04/17 11:36:19;;;;;;;;;35.25;30.00;;;;;14.13;72.71;100165.59;146585;640;46020;-74
2022/04/17 11:39:11;;;;;;;;;35.50;31.00;;;;;14.10;72.66;100158.56;146582;616;47010;-74
2022/04/17 11:42:03;;;;;;;;;30.75;27.75;;;;;14.07;74.20;100163.69;146584;648;47008;-74
2022/04/17 11:44:56;;;;;;;;;31.50;30.00;;;;;14.04;73.56;100170.53;146584;589;46010;-73
2022/04/17 11:47:50;;;;;;;;;29.75;28.00;;;;;13.09;73.17;100006.28;146586;578;46008;-73
2022/04/17 11:50:43;;;;;;;;;31.00;26.50;;;;;14.01;73.77;100165.25;146582;586;46016;-73
2022/04/17 11:53:36;;;;;;;;;36.25;30.00;;;;;13.97;72.90;100160.78;146585;635;46020;-74
2022/04/17 11:56:54;;;;;;;;;32.50;30.00;;;;;13.73;71.95;100106.25;146584;609;46017;-74
2022/04/17 11:59:50;;;;;;;;;35.75;31.50;;;;;14.03;72.81;100143.59;146585;617;46033;-74
2022/04/17 12:02:43;;;;;;;;;32.75;29.25;;;;;14.06;73.71;100143.69;146585;582;46017;-74
2022/04/17 12:05:36;;;;;;;;;37.25;33.75;;;;;14.08;74.79;100136.81;146587;638;46020;-74
2022/04/17 12:08:40;;;;;;;;;45.25;34.25;;;;;14.09;74.27;100135.06;146584;618;46031;-73
2022/04/17 12:11:33;;;;;;;;;41.50;33.75;;;;;13.17;73.46;99978.75;146584;644;46012;-73
2022/04/17 12:14:36;;;;;;;;;50.75;40.50;;;;;14.09;72.73;100132.47;146582;622;47010;-73
2022/04/17 12:17:28;;;;;;;;;51.25;41.25;;;;;14.12;73.78;100126.47;146585;571;47008;-73
2022/04/17 12:20:20;;;;;;;;;45.00;34.75;;;;;14.15;74.16;100126.53;146585;622;46016;-74
2022/04/17 12:23:12;;;;;;;;;31.50;29.25;;;;;14.17;74.08;100123.09;146587;584;46008;-73
2022/04/17 12:26:08;;;;;;;;;36.50;32.00;;;;;14.20;73.71;100110.16;146582;613;47011;-73
2022/04/17 12:29:00;;;;;;;;;47.75;37.75;;;;;14.24;73.70;100112.03;146586;595;46008;-73
2022/04/17 12:31:53;;;;;;;;;29.00;27.00;;;;;14.28;73.81;100105.16;146585;578;46016;-73
2022/04/17 12:34:46;;;;;;;;;28.75;27.50;;;;;14.30;73.48;100098.28;146585;611;47008;-73
2022/04/17 12:37:38;;;;;;;;;30.75;29.50;;;;;14.32;73.00;100096.56;146584;587;47010;-73
2022/04/17 12:40:31;;;;;;;;;48.50;39.75;;;;;14.34;72.94;100094.87;146584;585;46021;-73
2022/04/17 12:43:24;;;;;;;;;39.75;33.25;;;;;14.35;72.85;100086.22;146582;632;47010;-73
2022/04/17 12:46:27;;;;;;;;;45.25;37.00;;;;;14.37;72.34;100092.34;146586;610;46008;-73
2022/04/17 12:49:24;;;;;;;;;31.50;27.25;;;;;14.39;72.64;100089.78;146584;581;46010;-73
2022/04/17 12:52:25;;;;;;;;;35.00;31.00;;;;;13.53;72.33;99936.38;146583;708;47020;-73
2022/04/17 12:55:17;;;;;;;;;32.75;29.25;;;;;14.39;72.55;100082.84;146584;681;47010;-73
2022/04/17 12:58:09;;;;;;;;;33.25;29.75;;;;;14.39;72.38;100079.34;146584;624;46020;-73
2022/04/17 13:01:03;;;;;;;;;34.50;28.25;;;;;14.39;72.71;100084.56;146584;572;46918;-73
2022/04/17 13:03:55;;;;;;;;;30.25;27.75;;;;;14.35;73.31;100078.38;146586;566;46020;-71
2022/04/17 13:06:50;;;;;;;;;26.25;26.00;;;;;14.30;73.07;100070.47;146581;800;47010;-72
2022/04/17 13:09:51;;;;;;;;;39.25;33.50;;;;;14.28;73.04;100079.97;146585;736;46021;-71
2022/04/17 13:12:51;;;;;;;;;34.25;30.00;;;;;14.28;73.61;100082.56;146585;610;46010;-70
2022/04/17 13:15:43;;;;;;;;;24.50;24.25;;;;;14.26;73.50;100079.03;146584;647;46920;-71
2022/04/17 13:18:38;;;;;;;;;36.00;29.75;;;;;14.26;73.17;100068.59;146581;637;47919;-70
2022/04/17 13:21:31;;;;;;;;;19.50;17.00;;;;;14.27;73.75;100069.50;146585;567;46020;-71
2022/04/17 13:24:29;;;;;;;;;18.00;17.00;;;;;14.27;72.70;100067.78;146584;570;46016;-74
2022/04/17 13:27:21;;;;;;;;;32.00;29.25;;;;;14.27;72.80;100059.94;146586;601;46020;-75
2022/04/17 13:30:15;;;;;;;;;51.75;42.50;;;;;14.30;73.09;100064.37;146583;577;46012;-75
2022/04/17 13:33:08;;;;;;;;;18.75;16.00;;;;;14.29;73.18;100055.62;146586;641;46026;-75
2022/04/17 13:36:00;;;;;;;;;22.25;17.50;;;;;14.28;72.86;100055.59;146584;665;47010;-74
2022/04/17 13:38:53;;;;;;;;;26.00;22.00;;;;;14.30;72.92;100053.94;146587;579;46008;-75
2022/04/17 13:41:46;;;;;;;;;24.75;24.50;;;;;14.31;72.88;100056.56;146583;593;47010;-74